Time;durP1;ratioP1;P1;durP2;ratioP2;P2;SDS_P1;SDS_P2;PMS_P1;PMS_P2;Temp;Humidity;BMP_temperature;BMP_pressure;BME280_temperature;BME280_humidity;BME280_pressure;Samples;Min_cycle;Max_cycle;Signal;HPM_P1;HPM_P2
2023/07/20 00:02:00;;;;;;;6.55;4.15;;;615.30;2432.00;;;;;;5017489;28;20049;-72
2023/07/20 00:04:26;;;;;;;10.77;4.25;;;615.30;2432.00;;;;;;5017483;28;20017;-72
2023/07/20 00:06:51;;;;;;;10.85;3.90;;;615.20;2432.00;;;;;;5035479;28;20026;-74
2023/07/20 00:09:17;;;;;;;8.85;3.20;;;615.20;2432.00;;;;;;5029008;28;20108;-72
2023/07/20 00:11:53;;;;;;;8.90;3.25;;;615.10;2432.00;;;;;;5035138;28;20557;-72
2023/07/20 00:14:18;;;;;;;17.42;4.63;;;615.30;2432.00;;;;;;5031097;28;20573;-72
2023/07/20 00:16:55;;;;;;;10.20;4.07;;;615.10;2432.00;;;;;;5034812;28;20037;-74
2023/07/20 00:19:27;;;;;;;10.23;4.00;;;615.10;2432.00;;;;;;5034713;28;20385;-72
2023/07/20 00:21:54;;;;;;;10.57;4.05;;;614.90;2432.00;;;;;;5034083;28;20041;-72
2023/07/20 00:24:20;;;;;;;13.23;3.60;;;615.10;2432.00;;;;;;5017936;28;20071;-72
2023/07/20 00:26:46;;;;;;;7.88;3.75;;;615.10;2432.00;;;;;;5035326;28;20057;-73
2023/07/20 00:29:11;;;;;;;6.78;3.22;;;615.10;2432.00;;;;;;5035568;28;20026;-73
2023/07/20 00:31:37;;;;;;;11.88;3.63;;;615.10;2432.00;;;;;;5035376;28;20033;-74
2023/07/20 00:34:04;;;;;;;15.63;3.80;;;615.20;2432.00;;;;;;5035362;28;20030;-72
2023/07/20 00:36:29;;;;;;;10.95;3.55;;;615.20;2432.00;;;;;;5035302;28;20021;-72
2023/07/20 00:38:55;;;;;;;9.68;3.85;;;615.20;2432.00;;;;;;5035309;28;20075;-73
2023/07/20 00:41:20;;;;;;;6.43;4.03;;;615.20;2432.00;;;;;;5035158;28;20493;-72
2023/07/20 00:43:46;;;;;;;10.52;4.35;;;615.10;2432.00;;;;;;5035221;28;20386;-76
2023/07/20 00:46:13;;;;;;;12.80;4.70;;;615.20;2432.00;;;;;;5035353;28;20033;-72
2023/07/20 00:48:41;;;;;;;9.10;4.22;;;615.10;2432.00;;;;;;5035255;28;20017;-72
2023/07/20 00:51:07;;;;;;;10.48;4.32;;;615.10;2432.00;;;;;;5035079;28;20498;-74
2023/07/20 00:53:33;;;;;;;10.90;4.03;;;615.20;2432.00;;;;;;5035133;28;20024;-73
2023/07/20 00:55:59;;;;;;;14.15;3.80;;;615.20;2432.00;;;;;;5034973;28;20021;-73
2023/07/20 00:58:25;;;;;;;9.80;4.40;;;615.20;2432.00;;;;;;5034876;28;20030;-73
2023/07/20 01:00:51;;;;;;;6.55;3.50;;;615.10;2432.00;;;;;;5034845;28;20047;-73
2023/07/20 01:03:16;;;;;;;11.65;4.40;;;615.10;2432.00;;;;;;5034910;28;20093;-72
2023/07/20 01:06:08;;;;;;;16.95;3.65;;;614.90;2432.00;;;;;;5034566;28;20029;-74
2023/07/20 01:08:45;;;;;;;11.27;4.03;;;614.90;2432.00;;;;;;5016655;28;20030;-72
2023/07/20 01:11:21;;;;;;;10.02;4.03;;;615.10;2432.00;;;;;;5033935;28;20422;-72
2023/07/20 01:13:47;;;;;;;11.32;3.47;;;615.00;2432.00;;;;;;5034378;28;20046;-72
2023/07/20 01:16:12;;;;;;;12.15;3.83;;;614.90;2432.00;;;;;;5034638;28;20356;-72
2023/07/20 01:18:39;;;;;;;11.20;4.22;;;614.90;2432.00;;;;;;5034441;28;20022;-74
2023/07/20 01:21:10;;;;;;;12.30;3.63;;;615.00;2432.00;;;;;;5016370;28;20499;-73
2023/07/20 01:23:54;;;;;;;8.63;4.07;;;615.20;2432.00;;;;;;5034458;28;20387;-72
2023/07/20 01:26:56;;;;;;;12.65;4.22;;;615.20;2432.00;;;;;;5034518;28;20076;-72
2023/07/20 01:29:43;;;;;;;11.10;3.95;;;615.20;2432.00;;;;;;5034374;28;20018;-72
2023/07/20 01:32:09;;;;;;;9.45;3.90;;;615.20;2432.00;;;;;;5034257;28;20499;-72
2023/07/20 01:34:37;;;;;;;8.02;3.45;;;615.20;2432.00;;;;;;5016093;28;20411;-71
2023/07/20 01:37:04;;;;;;;10.05;3.70;;;615.20;2432.00;;;;;;5034141;28;20471;-73
2023/07/20 01:39:31;;;;;;;14.25;4.28;;;615.30;2432.00;;;;;;5034070;28;20021;-72
2023/07/20 01:41:58;;;;;;;11.25;3.08;;;615.20;2432.00;;;;;;5033960;28;20040;-72
2023/07/20 01:44:23;;;;;;;11.77;4.00;;;615.30;2432.00;;;;;;5033435;28;20041;-75
2023/07/20 01:46:49;;;;;;;7.63;3.28;;;615.20;2432.00;;;;;;5034039;28;20029;-77
2023/07/20 01:49:15;;;;;;;9.48;3.30;;;615.20;2432.00;;;;;;5034032;28;20403;-72
2023/07/20 01:51:41;;;;;;;13.05;4.22;;;615.10;2432.00;;;;;;5033782;28;20025;-73
2023/07/20 01:54:06;;;;;;;9.25;4.25;;;614.90;2432.00;;;;;;5033954;28;20498;-73
2023/07/20 01:56:32;;;;;;;9.05;3.00;;;614.90;2432.00;;;;;;5033923;28;20034;-73
2023/07/20 01:58:58;;;;;;;11.45;4.03;;;614.70;2432.00;;;;;;5033834;28;20421;-73
2023/07/20 02:01:23;;;;;;;12.80;3.53;;;614.50;2432.00;;;;;;5033647;28;20038;-73
2023/07/20 02:03:49;;;;;;;14.88;3.88;;;589.60;2432.00;;;;;;5033670;28;20030;-72
2023/07/20 02:06:15;;;;;;;8.38;3.47;;;589.40;2432.00;;;;;;5033650;28;20484;-72
2023/07/20 02:08:40;;;;;;;12.93;4.30;;;589.20;2432.00;;;;;;5033766;28;20022;-74
2023/07/20 02:11:06;;;;;;;13.27;3.65;;;589.10;2432.00;;;;;;5033706;28;20029;-73
2023/07/20 02:13:32;;;;;;;10.65;3.72;;;589.30;2432.00;;;;;;5033207;28;20549;-72
2023/07/20 02:15:57;;;;;;;14.02;4.38;;;589.40;2432.00;;;;;;5033363;28;20037;-72
2023/07/20 02:18:23;;;;;;;12.38;3.63;;;589.70;2432.00;;;;;;5033818;28;20100;-73
2023/07/20 02:20:49;;;;;;;7.20;3.45;;;589.70;2432.00;;;;;;5015270;28;20494;-72
2023/07/20 02:23:14;;;;;;;12.48;4.30;;;614.50;2432.00;;;;;;5033317;28;20112;-73
2023/07/20 02:25:40;;;;;;;7.50;3.88;;;614.50;2432.00;;;;;;5033279;28;20036;-73
2023/07/20 02:28:08;;;;;;;10.63;3.97;;;614.50;2432.00;;;;;;5033330;28;20487;-72
2023/07/20 02:30:37;;;;;;;10.05;3.35;;;614.50;2432.00;;;;;;5033308;28;20022;-75
2023/07/20 02:33:05;;;;;;;7.07;3.45;;;614.50;2432.00;;;;;;5033308;28;20026;-73
2023/07/20 02:35:31;;;;;;;9.18;3.60;;;614.50;2432.00;;;;;;5033459;28;20018;-73
2023/07/20 02:37:57;;;;;;;13.75;4.43;;;589.70;2432.00;;;;;;5031021;28;20009;-72
2023/07/20 02:40:23;;;;;;;6.70;3.72;;;589.40;2432.00;;;;;;5024782;28;20022;-75
2023/07/20 02:42:49;;;;;;;11.23;4.75;;;589.30;2432.00;;;;;;5018040;28;20100;-73
2023/07/20 02:45:14;;;;;;;14.48;4.78;;;589.10;2432.00;;;;;;5017460;28;20026;-73
2023/07/20 02:47:40;;;;;;;8.48;4.38;;;589.00;2432.00;;;;;;5020986;28;20025;-73
2023/07/20 02:50:07;;;;;;;9.30;4.10;;;588.80;2432.00;;;;;;5010669;28;20029;-72
2023/07/20 02:52:33;;;;;;;9.95;3.55;;;589.00;2432.00;;;;;;5018606;28;20034;-72
2023/07/20 02:54:59;;;;;;;11.55;4.15;;;589.20;2432.00;;;;;;5017828;28;20479;-72
2023/07/20 02:57:25;;;;;;;15.77;4.20;;;589.20;2432.00;;;;;;5024587;28;20025;-73
2023/07/20 02:59:50;;;;;;;9.75;5.13;;;589.10;2432.00;;;;;;5018461;28;20353;-76
2023/07/20 03:02:16;;;;;;;13.23;4.93;;;589.10;2432.00;;;;;;5018886;28;20061;-73
2023/07/20 03:04:42;;;;;;;13.65;5.43;;;589.10;2432.00;;;;;;5013904;28;20044;-73
2023/07/20 03:07:08;;;;;;;16.38;5.05;;;589.00;2432.00;;;;;;5018922;28;20026;-72
2023/07/20 03:09:34;;;;;;;10.25;4.40;;;589.00;2432.00;;;;;;5014346;28;20033;-73
2023/07/20 03:11:59;;;;;;;15.48;5.82;;;589.00;2432.00;;;;;;5016627;28;20096;-72
2023/07/20 03:14:25;;;;;;;8.40;3.90;;;589.30;2432.00;;;;;;5015557;28;20519;-72
2023/07/20 03:16:51;;;;;;;10.90;4.63;;;589.50;2432.00;;;;;;5018294;28;20118;-73
2023/07/20 03:19:16;;;;;;;12.15;4.88;;;589.60;2432.00;;;;;;4998476;28;20026;-75
2023/07/20 03:21:42;;;;;;;13.88;5.00;;;589.70;2432.00;;;;;;5017840;28;20109;-73
2023/07/20 03:24:08;;;;;;;10.00;4.25;;;589.70;2432.00;;;;;;5021594;28;20376;-76
2023/07/20 03:26:35;;;;;;;8.35;3.75;;;614.40;2432.00;;;;;;5027637;28;20021;-72
2023/07/20 03:29:01;;;;;;;10.35;3.72;;;614.50;2432.00;;;;;;5029335;28;20018;-73
2023/07/20 03:31:27;;;;;;;12.02;3.80;;;614.50;2432.00;;;;;;5016569;28;20476;-73
2023/07/20 03:33:52;;;;;;;13.77;3.70;;;614.60;2432.00;;;;;;5019584;28;20025;-73
2023/07/20 03:36:18;;;;;;;12.35;3.97;;;614.60;2432.00;;;;;;5022205;28;20453;-73
2023/07/20 03:38:44;;;;;;;7.82;3.38;;;614.70;2432.00;;;;;;5003123;28;20030;-73
2023/07/20 03:41:11;;;;;;;13.25;4.22;;;614.70;2432.00;;;;;;5021591;28;20037;-72
2023/07/20 03:43:37;;;;;;;14.02;3.40;;;614.70;2432.00;;;;;;5012043;28;20119;-73
2023/07/20 03:46:06;;;;;;;9.68;3.75;;;614.60;2432.00;;;;;;5021078;28;20081;-72
2023/07/20 03:48:33;;;;;;;9.80;3.42;;;614.60;2432.00;;;;;;5006889;28;20099;-74
2023/07/20 03:51:00;;;;;;;7.93;3.55;;;614.40;2432.00;;;;;;5019949;28;20358;-72
2023/07/20 03:53:26;;;;;;;10.63;3.42;;;614.50;2432.00;;;;;;5023977;28;20037;-73
2023/07/20 03:55:52;;;;;;;6.07;3.25;;;614.60;2432.00;;;;;;5018324;28;20026;-73
2023/07/20 03:58:19;;;;;;;11.85;4.13;;;614.60;2432.00;;;;;;5024567;28;20079;-73
2023/07/20 04:00:46;;;;;;;14.15;4.40;;;614.50;2432.00;;;;;;5020512;28;20254;-73
2023/07/20 04:03:12;;;;;;;8.38;3.85;;;614.50;2432.00;;;;;;5019305;28;20108;-78
2023/07/20 04:05:39;;;;;;;9.27;4.20;;;589.60;2432.00;;;;;;5019734;28;20033;-73
2023/07/20 04:08:04;;;;;;;13.98;4.55;;;614.40;2432.00;;;;;;5019813;28;20562;-74
2023/07/20 04:10:30;;;;;;;12.00;4.88;;;589.70;2432.00;;;;;;5029262;28;20093;-73
2023/07/20 04:12:56;;;;;;;12.80;5.20;;;589.70;2432.00;;;;;;5022900;28;20125;-73
2023/07/20 04:15:21;;;;;;;13.02;5.18;;;589.70;2432.00;;;;;;5019396;28;20546;-76
2023/07/20 04:17:47;;;;;;;14.50;4.65;;;614.40;2432.00;;;;;;5020858;28;20077;-73
2023/07/20 04:20:13;;;;;;;14.02;5.25;;;589.70;2432.00;;;;;;5019637;28;20034;-81
2023/07/20 04:22:39;;;;;;;14.00;5.10;;;589.70;2432.00;;;;;;5017152;28;20065;-73
2023/07/20 04:25:04;;;;;;;15.05;4.78;;;589.70;2432.00;;;;;;5019576;28;20017;-73
2023/07/20 04:27:30;;;;;;;12.75;5.50;;;589.70;2432.00;;;;;;5021487;28;20032;-72
2023/07/20 04:29:59;;;;;;;12.05;4.30;;;589.70;2432.00;;;;;;5019828;28;20431;-72
2023/07/20 04:32:25;;;;;;;13.13;4.70;;;589.70;2432.00;;;;;;5026243;28;20037;-76
2023/07/20 04:34:51;;;;;;;10.68;5.25;;;589.70;2432.00;;;;;;5030561;28;20443;-73
2023/07/20 04:37:17;;;;;;;30.70;17.58;;;589.70;2432.00;;;;;;5017981;28;20068;-79
2023/07/20 04:39:42;;;;;;;33.63;16.25;;;614.40;2432.00;;;;;;5021021;28;20045;-72
2023/07/20 04:42:08;;;;;;;53.45;26.52;;;589.70;2432.00;;;;;;5021386;28;20033;-71
2023/07/20 04:44:34;;;;;;;45.80;25.67;;;614.50;2432.00;;;;;;5015352;28;20164;-70
2023/07/20 04:46:59;;;;;;;45.70;23.25;;;614.50;2432.00;;;;;;5018538;28;20072;-73
2023/07/20 04:49:25;;;;;;;15.30;7.68;;;614.60;2432.00;;;;;;5015622;28;20018;-78
2023/07/20 04:51:52;;;;;;;13.63;7.07;;;614.50;2432.00;;;;;;5018650;28;20006;-75
2023/07/20 04:54:18;;;;;;;11.05;5.40;;;614.50;2432.00;;;;;;5019114;28;20061;-72
2023/07/20 04:56:44;;;;;;;10.85;6.05;;;614.50;2432.00;;;;;;5019400;28;20484;-71
2023/07/20 04:59:10;;;;;;;9.13;4.65;;;614.50;2432.00;;;;;;5014483;28;20032;-77
2023/07/20 05:01:36;;;;;;;10.80;4.40;;;614.50;2432.00;;;;;;5020567;28;20042;-72
2023/07/20 05:04:02;;;;;;;23.58;6.68;;;614.50;2432.00;;;;;;5017210;28;20124;-70
2023/07/20 05:06:27;;;;;;;19.80;8.75;;;614.60;2432.00;;;;;;5018036;28;20383;-72
2023/07/20 05:08:53;;;;;;;29.77;15.10;;;614.50;2432.00;;;;;;5022188;28;20483;-72
2023/07/20 05:11:19;;;;;;;23.13;11.73;;;614.50;2432.00;;;;;;5009103;28;20044;-72
2023/07/20 05:13:45;;;;;;;44.95;23.83;;;614.60;2432.00;;;;;;5032867;28;20526;-71
2023/07/20 05:16:11;;;;;;;12.48;7.78;;;614.70;2432.00;;;;;;5033572;28;20041;-70
2023/07/20 05:18:37;;;;;;;12.95;6.65;;;614.60;2432.00;;;;;;5016211;28;20021;-72
2023/07/20 05:21:02;;;;;;;13.68;5.40;;;614.50;2432.00;;;;;;5033642;28;20387;-75
2023/07/20 05:23:28;;;;;;;12.70;5.22;;;614.50;2432.00;;;;;;5030953;28;20021;-71
2023/07/20 05:25:58;;;;;;;11.48;4.93;;;614.50;2432.00;;;;;;5033776;28;20025;-75
2023/07/20 05:28:26;;;;;;;168.52;79.20;;;614.60;2432.00;;;;;;5034151;28;20018;-71
2023/07/20 05:30:52;;;;;;;41.95;20.77;;;614.60;2432.00;;;;;;5015916;28;20071;-74
2023/07/20 05:33:21;;;;;;;15.65;7.15;;;614.60;2432.00;;;;;;5032248;28;20541;-77
2023/07/20 05:35:47;;;;;;;12.73;5.32;;;614.70;2432.00;;;;;;5029965;28;20033;-71
2023/07/20 05:38:13;;;;;;;21.25;12.27;;;614.70;2432.00;;;;;;5033258;28;20025;-74
2023/07/20 05:40:43;;;;;;;167.32;90.82;;;614.80;2432.00;;;;;;5034109;28;20117;-77
2023/07/20 05:43:10;;;;;;;33.35;20.95;;;614.80;2432.00;;;;;;5033519;28;20034;-77
2023/07/20 05:45:36;;;;;;;24.40;13.38;;;614.90;2432.00;;;;;;5033258;28;20034;-75
2023/07/20 05:48:01;;;;;;;11.57;7.38;;;614.90;2432.00;;;;;;5032615;28;20096;-71
2023/07/20 05:50:27;;;;;;;17.35;7.15;;;614.90;2432.00;;;;;;5030861;28;20364;-77
2023/07/20 05:52:54;;;;;;;10.45;5.43;;;614.90;2432.00;;;;;;5033115;28;20030;-74
2023/07/20 05:55:20;;;;;;;45.60;24.92;;;615.00;2432.00;;;;;;5033709;28;20021;-71
2023/07/20 05:57:47;;;;;;;25.95;14.07;;;615.00;2432.00;;;;;;5032557;28;20037;-72
2023/07/20 06:00:13;;;;;;;142.68;70.15;;;614.90;2432.00;;;;;;5033067;28;20063;-72
2023/07/20 06:02:39;;;;;;;94.88;46.60;;;614.90;2432.00;;;;;;5033247;28;20379;-71
2023/07/20 06:05:09;;;;;;;61.63;31.38;;;615.10;2432.00;;;;;;5032897;28;20034;-71
2023/07/20 06:07:38;;;;;;;102.40;47.30;;;615.00;2432.00;;;;;;5027389;28;20022;-70
2023/07/20 06:10:05;;;;;;;45.90;25.55;;;614.90;2432.00;;;;;;5032842;28;20030;-71
2023/07/20 06:12:32;;;;;;;25.80;13.82;;;615.10;2432.00;;;;;;5032518;28;20029;-70
2023/07/20 06:15:01;;;;;;;16.92;9.45;;;615.10;2432.00;;;;;;5032508;28;20050;-70
2023/07/20 06:17:27;;;;;;;19.58;7.75;;;615.20;2432.00;;;;;;5032540;28;20037;-73
2023/07/20 06:19:53;;;;;;;17.05;6.38;;;615.30;2432.00;;;;;;5031523;28;20026;-73
2023/07/20 06:22:19;;;;;;;12.63;6.70;;;615.00;2432.00;;;;;;5032653;28;20088;-73
2023/07/20 06:24:44;;;;;;;109.63;52.00;;;615.20;2432.00;;;;;;5033151;28;20112;-70
2023/07/20 06:27:12;;;;;;;22.67;11.93;;;615.20;2432.00;;;;;;5032484;28;20403;-72
2023/07/20 06:29:37;;;;;;;12.00;6.00;;;615.30;2432.00;;;;;;5033331;28;20159;-71
2023/07/20 06:32:04;;;;;;;15.93;5.65;;;615.30;2432.00;;;;;;5032365;28;20526;-71
2023/07/20 06:34:29;;;;;;;10.52;6.20;;;615.30;2432.00;;;;;;5032282;28;20025;-72
2023/07/20 06:36:55;;;;;;;32.33;16.20;;;615.10;2432.00;;;;;;5031675;28;20502;-73
2023/07/20 06:39:22;;;;;;;14.07;7.97;;;615.30;2432.00;;;;;;5027051;28;20034;-71
2023/07/20 06:41:48;;;;;;;8.57;4.82;;;615.30;2432.00;;;;;;5022367;28;20515;-71
2023/07/20 06:44:13;;;;;;;11.52;4.95;;;615.20;2432.00;;;;;;5023753;28;20029;-73
2023/07/20 06:46:39;;;;;;;12.02;4.93;;;615.30;2432.00;;;;;;5027957;28;20063;-71
2023/07/20 06:49:07;;;;;;;10.77;5.00;;;615.30;2432.00;;;;;;5027769;28;20072;-71
2023/07/20 06:51:33;;;;;;;11.55;4.90;;;615.30;2432.00;;;;;;5030837;28;20525;-70
2023/07/20 06:53:59;;;;;;;11.27;5.18;;;615.30;2432.00;;;;;;5032412;28;20030;-75
2023/07/20 06:56:24;;;;;;;9.75;4.90;;;615.30;2432.00;;;;;;5032068;28;20060;-70
2023/07/20 06:58:50;;;;;;;11.25;5.90;;;615.30;2432.00;;;;;;5032774;28;20025;-71
2023/07/20 07:01:16;;;;;;;11.05;5.05;;;615.20;2432.00;;;;;;5031942;28;20048;-72
2023/07/20 07:03:43;;;;;;;15.15;8.05;;;615.20;2432.00;;;;;;5032036;28;20021;-72
2023/07/20 07:06:10;;;;;;;11.70;6.20;;;615.10;2432.00;;;;;;5031985;28;20033;-73
2023/07/20 07:08:35;;;;;;;16.40;7.47;;;615.20;2432.00;;;;;;5033298;28;20025;-72
2023/07/20 07:11:01;;;;;;;30.27;15.90;;;615.20;2432.00;;;;;;5035895;28;20032;-73
2023/07/20 07:13:27;;;;;;;13.30;7.00;;;615.30;2432.00;;;;;;5035972;28;20041;-70
2023/07/20 07:15:53;;;;;;;38.45;19.25;;;615.30;2432.00;;;;;;5036448;28;20114;-70
2023/07/20 07:18:20;;;;;;;16.88;7.55;;;615.30;2432.00;;;;;;5035153;28;20099;-72
2023/07/20 07:20:51;;;;;;;9.77;5.20;;;615.30;2432.00;;;;;;5035822;28;20033;-71
2023/07/20 07:23:18;;;;;;;15.27;6.75;;;615.30;2432.00;;;;;;5036044;28;20509;-71
2023/07/20 07:25:43;;;;;;;10.25;4.65;;;615.30;2432.00;;;;;;5035980;28;20029;-70
2023/07/20 07:28:09;;;;;;;25.30;12.68;;;615.30;2432.00;;;;;;5032363;28;20430;-72
2023/07/20 07:30:35;;;;;;;23.20;12.82;;;640.00;2432.00;;;;;;5010881;28;20365;-70
2023/07/20 07:33:00;;;;;;;18.02;9.50;;;640.10;2432.00;;;;;;5035569;28;20047;-71
2023/07/20 07:35:26;;;;;;;13.10;6.05;;;640.20;2432.00;;;;;;5029290;28;20034;-72
2023/07/20 07:37:52;;;;;;;23.60;12.45;;;640.20;2432.00;;;;;;5035359;28;20033;-73
2023/07/20 07:40:18;;;;;;;10.50;6.05;;;640.40;2432.00;;;;;;5035487;28;20376;-72
2023/07/20 07:42:44;;;;;;;7.90;4.78;;;640.60;2432.00;;;;;;5025052;28;20043;-73
2023/07/20 07:45:10;;;;;;;11.90;5.53;;;640.50;2432.00;;;;;;5035587;28;20437;-71
2023/07/20 07:47:35;;;;;;;8.27;4.40;;;640.50;2432.00;;;;;;5033204;28;20034;-71
2023/07/20 07:50:01;;;;;;;9.93;5.18;;;640.40;2432.00;;;;;;5035350;28;20029;-70
2023/07/20 07:52:27;;;;;;;8.55;5.00;;;640.40;2432.00;;;;;;5035383;28;20029;-71
2023/07/20 07:54:53;;;;;;;9.32;4.65;;;640.40;2432.00;;;;;;5036080;28;20029;-71
2023/07/20 07:57:19;;;;;;;10.10;5.10;;;640.40;2432.00;;;;;;5024706;28;20496;-72
2023/07/20 07:59:44;;;;;;;10.30;4.30;;;640.40;2432.00;;;;;;5020820;28;20022;-71
2023/07/20 08:02:10;;;;;;;12.70;5.90;;;640.30;2432.00;;;;;;5035284;28;20076;-71
2023/07/20 08:04:36;;;;;;;13.45;6.53;;;640.40;2432.00;;;;;;5034464;28;20091;-71
2023/07/20 08:07:03;;;;;;;15.80;6.53;;;640.60;2432.00;;;;;;5035082;28;20101;-72
2023/07/20 08:09:29;;;;;;;18.25;6.88;;;640.80;2432.00;;;;;;5034466;28;20021;-72
2023/07/20 08:11:55;;;;;;;15.10;7.05;;;665.60;2432.00;;;;;;5029016;28;20485;-71
2023/07/20 08:14:21;;;;;;;10.98;4.72;;;;;;;;;;5034893;28;20099;-71
2023/07/20 08:16:47;;;;;;;9.82;5.25;;;665.70;2432.00;;;;;;5034977;28;20434;-71
2023/07/20 08:19:13;;;;;;;14.50;6.32;;;665.90;2432.00;;;;;;5034437;28;20049;-72
2023/07/20 08:21:38;;;;;;;13.10;7.25;;;666.10;2432.00;;;;;;5032273;28;20108;-72
2023/07/20 08:24:04;;;;;;;11.55;4.50;;;666.20;2432.00;;;;;;5035101;28;20030;-71
2023/07/20 08:26:30;;;;;;;8.77;4.72;;;666.20;2432.00;;;;;;5034687;28;20037;-71
2023/07/20 08:28:56;;;;;;;10.48;5.70;;;666.50;2432.00;;;;;;5034519;28;20030;-73
2023/07/20 08:31:22;;;;;;;7.85;5.22;;;691.20;2432.00;;;;;;5034761;28;20057;-72
2023/07/20 08:33:48;;;;;;;12.55;6.07;;;691.20;2432.00;;;;;;5034801;28;20434;-73
2023/07/20 08:36:14;;;;;;;52.30;25.80;;;691.20;2432.00;;;;;;5034470;28;20037;-72
2023/07/20 08:38:39;;;;;;;32.83;15.68;;;691.20;2432.00;;;;;;5030989;28;20025;-73
2023/07/20 08:41:05;;;;;;;11.15;5.88;;;691.30;2432.00;;;;;;5034394;28;20099;-72
2023/07/20 08:43:33;;;;;;;23.13;10.45;;;691.20;2432.00;;;;;;5034428;28;20399;-74
2023/07/20 08:45:59;;;;;;;42.30;20.73;;;691.40;2432.00;;;;;;5032899;28;20031;-72
2023/07/20 08:48:27;;;;;;;18.98;11.13;;;691.40;2432.00;;;;;;5028486;28;20029;-71
2023/07/20 08:50:57;;;;;;;11.82;5.28;;;691.50;2432.00;;;;;;5034273;28;20530;-72
2023/07/20 08:53:23;;;;;;;10.23;6.57;;;691.60;2432.00;;;;;;5034392;28;20032;-72
2023/07/20 08:55:51;;;;;;;8.93;4.90;;;691.60;2432.00;;;;;;5030755;28;20403;-71
2023/07/20 08:58:19;;;;;;;20.75;10.70;;;691.60;2432.00;;;;;;5034741;28;20109;-71
2023/07/20 09:00:45;;;;;;;9.15;5.90;;;691.60;2432.00;;;;;;5034161;28;20075;-72
2023/07/20 09:03:11;;;;;;;6.47;4.50;;;691.60;2432.00;;;;;;5034252;28;20033;-70
2023/07/20 09:05:38;;;;;;;9.07;4.93;;;691.60;2432.00;;;;;;5030753;28;20510;-70
2023/07/20 09:08:05;;;;;;;12.15;6.40;;;691.60;2432.00;;;;;;5034770;28;20024;-73
2023/07/20 09:10:30;;;;;;;10.73;6.63;;;691.60;2432.00;;;;;;5033596;28;20022;-73
2023/07/20 09:12:56;;;;;;;20.70;10.25;;;691.50;2432.00;;;;;;5033874;28;20096;-77
2023/07/20 09:15:22;;;;;;;51.47;26.08;;;691.60;2432.00;;;;;;5033811;28;20030;-72
2023/07/20 09:17:50;;;;;;;20.70;12.35;;;691.60;2432.00;;;;;;5033905;28;20739;-73
2023/07/20 09:20:18;;;;;;;13.38;8.07;;;691.60;2432.00;;;;;;5033690;28;20051;-72
2023/07/20 09:22:44;;;;;;;13.13;6.40;;;691.60;2432.00;;;;;;5033373;28;20040;-71
2023/07/20 09:25:14;;;;;;;15.50;5.03;;;691.80;2432.00;;;;;;5033525;28;20025;-70
2023/07/20 09:27:41;;;;;;;18.05;8.00;;;691.80;2432.00;;;;;;5033686;28;20487;-71
2023/07/20 09:30:09;;;;;;;21.73;12.00;;;691.90;2432.00;;;;;;5026940;28;20022;-72
2023/07/20 09:32:46;;;;;;;15.57;9.77;;;691.90;2432.00;;;;;;5033180;28;20025;-72
2023/07/20 09:35:16;;;;;;;27.55;13.88;;;691.90;2432.00;;;;;;5033246;28;20030;-73
2023/07/20 09:38:01;;;;;;;16.92;8.10;;;692.10;2432.00;;;;;;5033664;28;20036;-73
2023/07/20 09:40:27;;;;;;;18.85;8.13;;;691.90;2432.00;;;;;;5025494;28;20555;-73
2023/07/20 09:43:00;;;;;;;10.98;5.57;;;692.00;2432.00;;;;;;5033178;28;20037;-71
2023/07/20 09:45:39;;;;;;;15.13;5.53;;;692.00;2432.00;;;;;;5029639;28;20089;-72
2023/07/20 09:48:09;;;;;;;9.82;4.93;;;692.00;2432.00;;;;;;5008909;28;20472;-72
2023/07/20 09:50:41;;;;;;;7.60;4.38;;;716.80;2432.00;;;;;;5032455;28;20472;-72
2023/07/20 09:53:11;;;;;;;10.18;4.88;;;717.20;2432.00;;;;;;5031291;28;20368;-71
2023/07/20 09:55:38;;;;;;;8.35;4.90;;;717.30;2432.00;;;;;;5033081;28;20059;-72
2023/07/20 09:58:06;;;;;;;8.43;4.32;;;717.50;2432.00;;;;;;5033710;28;20028;-71
2023/07/20 10:00:35;;;;;;;8.30;4.25;;;742.50;2432.00;;;;;;5028325;28;20040;-73
2023/07/20 10:03:03;;;;;;;10.05;4.55;;;742.60;2432.00;;;;;;5033108;28;20025;-74
2023/07/20 10:05:35;;;;;;;6.80;4.57;;;742.80;2432.00;;;;;;5032945;28;20013;-72
2023/07/20 10:08:04;;;;;;;10.68;4.85;;;742.90;2432.00;;;;;;5028624;28;20033;-74
2023/07/20 10:10:32;;;;;;;6.10;4.43;;;742.80;2432.00;;;;;;5032531;28;20025;-72
2023/07/20 10:13:00;;;;;;;5.05;3.90;;;742.80;2432.00;;;;;;5032429;28;20021;-71
2023/07/20 10:15:47;;;;;;;7.60;4.43;;;742.90;2432.00;;;;;;5032882;28;20037;-71
2023/07/20 10:18:18;;;;;;;9.32;4.45;;;742.80;2432.00;;;;;;5032670;28;20108;-76
2023/07/20 10:20:46;;;;;;;7.38;4.45;;;742.90;2432.00;;;;;;5028905;28;20033;-72
2023/07/20 10:23:12;;;;;;;9.48;4.13;;;743.00;2432.00;;;;;;5032797;28;20033;-75
2023/07/20 10:25:41;;;;;;;7.88;4.13;;;743.30;2432.00;;;;;;5032396;28;20438;-74
2023/07/20 10:28:07;;;;;;;11.10;3.78;;;743.10;2432.00;;;;;;5015277;28;20033;-73
2023/07/20 10:30:36;;;;;;;8.40;4.88;;;743.20;2432.00;;;;;;5032654;28;20028;-76
2023/07/20 10:33:04;;;;;;;7.05;3.90;;;743.20;2432.00;;;;;;5032287;28;20080;-72
2023/07/20 10:35:30;;;;;;;8.73;4.57;;;743.20;2432.00;;;;;;5032462;28;20029;-71
2023/07/20 10:38:05;;;;;;;6.05;4.38;;;;;;;;;;5014649;28;20045;-73
2023/07/20 10:40:37;;;;;;;6.38;4.60;;;768.40;2432.00;;;;;;5032305;28;20506;-71
2023/07/20 10:43:07;;;;;;;11.20;4.38;;;768.90;2432.00;;;;;;5014144;28;20068;-73
2023/07/20 10:45:35;;;;;;;7.93;4.15;;;793.70;2329.60;;;;;;5032460;28;20026;-72
2023/07/20 10:48:04;;;;;;;7.35;4.47;;;794.00;2278.40;;;;;;5032381;28;20116;-71
2023/07/20 10:50:30;;;;;;;7.10;4.55;;;794.20;2278.40;;;;;;5032293;28;20025;-77
2023/07/20 10:53:14;;;;;;;7.97;4.78;;;794.20;2252.80;;;;;;5032050;28;20033;-72
2023/07/20 10:55:43;;;;;;;8.90;4.82;;;794.20;2201.60;;;;;;5028140;28;20021;-79
2023/07/20 10:58:11;;;;;;;7.35;5.10;;;794.50;2201.60;;;;;;5030152;28;20039;-74
2023/07/20 11:00:37;;;;;;;13.68;4.80;;;819.20;2201.60;;;;;;5032407;28;20040;-71
2023/07/20 11:03:04;;;;;;;8.55;4.68;;;819.30;2201.60;;;;;;5024141;28;20026;-73
2023/07/20 11:05:38;;;;;;;6.93;3.97;;;819.20;2124.80;;;;;;5027953;28;20022;-73
2023/07/20 11:08:09;;;;;;;9.23;4.33;;;819.30;2150.40;;;;;;5015144;28;20031;-74
2023/07/20 11:10:34;;;;;;;8.15;4.05;;;819.30;2124.80;;;;;;5032346;28;20143;-72
2023/07/20 11:13:22;;;;;;;8.48;4.80;;;819.60;2099.20;;;;;;5023739;28;20104;-73
2023/07/20 11:15:57;;;;;;;7.05;4.18;;;819.60;2099.20;;;;;;5014048;28;20495;-72
2023/07/20 11:18:26;;;;;;;8.30;5.13;;;819.30;2124.80;;;;;;5014430;28;20041;-72
2023/07/20 11:20:52;;;;;;;7.82;4.32;;;819.70;2073.60;;;;;;5031630;28;20037;-71
2023/07/20 11:23:20;;;;;;;7.72;3.55;;;819.70;2073.60;;;;;;5031908;28;20053;-72
2023/07/20 11:25:46;;;;;;;6.18;4.32;;;819.80;2048.00;;;;;;5031809;28;20033;-71
2023/07/20 11:28:11;;;;;;;6.35;4.40;;;819.80;2022.40;;;;;;5031871;28;20029;-75
2023/07/20 11:30:38;;;;;;;9.15;4.72;;;819.90;2022.40;;;;;;5031973;28;20100;-72
2023/07/20 11:33:05;;;;;;;8.88;4.93;;;820.10;1894.40;;;;;;5031740;28;20026;-71
2023/07/20 11:35:34;;;;;;;9.10;5.38;;;844.90;1894.40;;;;;;5032331;28;20055;-72
2023/07/20 11:38:00;;;;;;;7.80;4.53;;;845.00;1920.00;;;;;;5031433;28;20083;-77
2023/07/20 11:40:26;;;;;;;11.43;4.90;;;844.90;1971.20;;;;;;5031907;28;20037;-74
2023/07/20 11:42:52;;;;;;;7.72;4.43;;;844.80;1996.80;;;;;;5025282;28;20045;-72
2023/07/20 11:45:19;;;;;;;7.68;4.70;;;844.80;1971.20;;;;;;5031413;28;20021;-69
2023/07/20 11:47:45;;;;;;;12.55;4.63;;;844.80;1971.20;;;;;;5031977;28;20030;-71
2023/07/20 11:50:13;;;;;;;8.13;5.00;;;844.80;1945.60;;;;;;5029501;28;20040;-69
2023/07/20 11:52:40;;;;;;;8.10;4.22;;;844.90;1894.40;;;;;;5011058;28;20034;-71
2023/07/20 11:55:07;;;;;;;8.00;4.15;;;845.10;1920.00;;;;;;5016116;28;20571;-77
2023/07/20 11:57:33;;;;;;;7.35;4.50;;;845.40;1894.40;;;;;;5035474;28;20442;-70
2023/07/20 12:00:14;;;;;;;7.40;4.20;;;845.60;1868.80;;;;;;5035278;28;20037;-75
2023/07/20 12:02:40;;;;;;;11.20;4.40;;;845.70;1792.00;;;;;;5035091;28;20037;-76
2023/07/20 12:05:08;;;;;;;10.60;5.28;;;;;;;;;;5017525;28;20388;-69
2023/07/20 12:07:36;;;;;;;7.05;4.70;;;845.70;1843.20;;;;;;5035313;28;20033;-73
2023/07/20 12:10:06;;;;;;;9.15;4.28;;;870.40;1817.60;;;;;;5028496;28;20022;-72
2023/07/20 12:12:42;;;;;;;7.22;4.10;;;845.70;1817.60;;;;;;5031615;28;20033;-70